Time;durP1;ratioP1;P1;durP2;ratioP2;P2;SDS_P1;SDS_P2;PMS_P1;PMS_P2;Temp;Humidity;BMP_temperature;BMP_pressure;BME280_temperature;BME280_humidity;BME280_pressure;Samples;Min_cycle;Max_cycle;Signal;HPM_P1;HPM_P2
2023/06/30 00:00:36;;;;;;;7.60;3.40;;;15.30;99.90;;;;;;5036657;28;20033;-65
2023/06/30 00:03:04;;;;;;;9.30;3.92;;;15.20;99.90;;;;;;5034831;28;20056;-63
2023/06/30 00:05:29;;;;;;;11.05;4.07;;;15.20;99.90;;;;;;5035588;28;20040;-63
2023/06/30 00:07:58;;;;;;;11.48;3.55;;;15.10;99.90;;;;;;5036699;28;20045;-63
2023/06/30 00:10:24;;;;;;;10.43;3.95;;;15.10;99.90;;;;;;5051187;28;20115;-63
2023/06/30 00:12:49;;;;;;;9.25;4.45;;;15.10;99.90;;;;;;5039979;28;20140;-63
2023/06/30 00:15:15;;;;;;;8.00;3.83;;;15.10;99.90;;;;;;5040973;28;20051;-63
2023/06/30 00:17:41;;;;;;;10.73;4.30;;;15.10;99.90;;;;;;5046397;28;20150;-63
2023/06/30 00:20:07;;;;;;;6.57;3.78;;;15.10;99.90;;;;;;5031296;28;20037;-63
2023/06/30 00:22:35;;;;;;;7.68;3.75;;;15.10;99.90;;;;;;5038589;28;20664;-63
2023/06/30 00:25:01;;;;;;;6.80;3.65;;;15.00;99.90;;;;;;5039440;28;20983;-64
2023/06/30 00:27:27;;;;;;;13.45;4.47;;;15.00;99.90;;;;;;5035357;28;20044;-63
2023/06/30 00:29:53;;;;;;;6.57;3.63;;;14.90;99.90;;;;;;5036832;28;20143;-63
2023/06/30 00:32:19;;;;;;;9.60;4.15;;;14.80;99.90;;;;;;5039937;28;20071;-63
2023/06/30 00:34:45;;;;;;;10.85;3.63;;;14.80;99.90;;;;;;5035299;28;20047;-63
2023/06/30 00:37:10;;;;;;;7.05;3.60;;;14.80;99.90;;;;;;5037379;28;20421;-63
2023/06/30 00:39:36;;;;;;;6.50;3.55;;;14.70;99.90;;;;;;5035849;28;20476;-63
2023/06/30 00:42:02;;;;;;;8.02;4.00;;;14.70;99.90;;;;;;5034837;28;20159;-63
2023/06/30 00:44:27;;;;;;;9.68;3.95;;;14.60;99.90;;;;;;5040138;28;20039;-63
2023/06/30 00:46:54;;;;;;;11.40;3.45;;;14.60;99.90;;;;;;5034526;28;20041;-63
2023/06/30 00:49:19;;;;;;;9.80;3.10;;;14.50;99.90;;;;;;5042164;28;20107;-63
2023/06/30 00:51:45;;;;;;;10.27;4.10;;;14.50;99.90;;;;;;5023017;28;20138;-63
2023/06/30 00:54:12;;;;;;;7.63;3.45;;;14.40;99.90;;;;;;5040518;28;20033;-63
2023/06/30 00:56:37;;;;;;;10.57;3.70;;;14.40;99.90;;;;;;5034380;28;20149;-63
2023/06/30 00:59:03;;;;;;;11.10;3.63;;;14.30;99.90;;;;;;5040416;28;20041;-63
2023/06/30 01:01:46;;;;;;;13.40;4.00;;;14.30;99.90;;;;;;5031726;28;20047;-63
2023/06/30 01:04:21;;;;;;;8.43;3.05;;;14.30;99.90;;;;;;5036790;28;20052;-63
2023/06/30 01:07:13;;;;;;;10.40;3.70;;;14.20;99.90;;;;;;5041608;28;20138;-63
2023/06/30 01:09:51;;;;;;;5.35;3.40;;;14.20;99.90;;;;;;5040876;28;20120;-63
2023/06/30 01:12:16;;;;;;;8.63;3.55;;;14.10;99.90;;;;;;5043431;28;20032;-63
2023/06/30 01:14:43;;;;;;;12.02;2.83;;;14.10;99.90;;;;;;5038623;28;20049;-63
2023/06/30 01:17:09;;;;;;;5.22;2.95;;;14.00;99.90;;;;;;5039824;28;20397;-63
2023/06/30 01:19:44;;;;;;;6.32;3.20;;;14.00;99.90;;;;;;5045257;28;21036;-63
2023/06/30 01:22:19;;;;;;;6.13;3.17;;;13.90;99.90;;;;;;5045229;28;20174;-63
2023/06/30 01:24:46;;;;;;;9.13;3.72;;;13.90;99.90;;;;;;5040232;28;20485;-63
2023/06/30 01:27:12;;;;;;;7.00;3.00;;;13.90;99.90;;;;;;5032736;28;20099;-63
2023/06/30 01:29:42;;;;;;;10.05;3.40;;;13.90;99.90;;;;;;5045009;28;20033;-63
2023/06/30 01:32:08;;;;;;;11.45;3.78;;;13.90;99.90;;;;;;5043551;28;20044;-63
2023/06/30 01:34:34;;;;;;;10.15;3.15;;;13.80;99.90;;;;;;5044022;28;20045;-63
2023/06/30 01:36:59;;;;;;;8.07;2.92;;;13.80;99.90;;;;;;5043376;28;20063;-63
2023/06/30 01:39:25;;;;;;;6.93;3.15;;;13.70;99.90;;;;;;5048284;28;20044;-63
2023/06/30 01:41:50;;;;;;;7.32;3.08;;;13.70;99.90;;;;;;5044560;28;20075;-63
2023/06/30 01:44:17;;;;;;;8.95;2.90;;;13.70;99.90;;;;;;5042848;28;20059;-63
2023/06/30 01:46:42;;;;;;;10.38;2.95;;;13.60;99.90;;;;;;5041780;28;20172;-63
2023/06/30 01:49:10;;;;;;;6.43;3.28;;;13.60;99.90;;;;;;5037433;28;20144;-63
2023/06/30 01:51:36;;;;;;;6.32;3.03;;;13.60;99.90;;;;;;5044271;28;20496;-63
2023/06/30 01:54:02;;;;;;;5.50;2.30;;;13.50;99.90;;;;;;5034447;28;20110;-64
2023/06/30 01:56:28;;;;;;;7.18;2.50;;;13.50;99.90;;;;;;5036074;28;20041;-63
2023/06/30 01:58:53;;;;;;;5.97;2.85;;;13.50;99.90;;;;;;5041177;28;20033;-65
2023/06/30 02:01:19;;;;;;;5.18;2.80;;;13.50;99.90;;;;;;5036256;28;20036;-63
2023/06/30 02:03:45;;;;;;;7.97;2.88;;;13.40;99.90;;;;;;5036291;28;20630;-63
2023/06/30 02:06:10;;;;;;;5.65;2.70;;;13.40;99.90;;;;;;5032900;28;20041;-63
2023/06/30 02:08:36;;;;;;;7.50;2.85;;;13.30;99.90;;;;;;5046520;28;20048;-63
2023/06/30 02:11:02;;;;;;;5.28;2.70;;;13.30;99.90;;;;;;5036423;28;20122;-63
2023/06/30 02:13:28;;;;;;;10.57;3.22;;;13.30;99.90;;;;;;5041794;28;20426;-63
2023/06/30 02:15:53;;;;;;;6.15;2.78;;;13.30;99.90;;;;;;5033384;28;20088;-63
2023/06/30 02:18:22;;;;;;;7.18;2.85;;;13.30;99.90;;;;;;5042797;28;20055;-63
2023/06/30 02:20:47;;;;;;;8.57;3.13;;;13.30;99.90;;;;;;5031329;28;20045;-63
2023/06/30 02:23:13;;;;;;;8.45;3.00;;;13.30;99.90;;;;;;5041589;28;20461;-62
2023/06/30 02:25:38;;;;;;;9.13;2.67;;;13.20;99.90;;;;;;5033816;28;20132;-63
2023/06/30 02:28:04;;;;;;;7.45;2.83;;;13.20;99.90;;;;;;5036219;28;20033;-63
2023/06/30 02:30:30;;;;;;;7.20;2.85;;;13.20;99.90;;;;;;5032266;28;20033;-63
2023/06/30 02:32:55;;;;;;;9.35;2.78;;;13.20;99.90;;;;;;5038585;28;20103;-63
2023/06/30 02:35:21;;;;;;;4.35;2.65;;;13.20;99.90;;;;;;5030571;28;20094;-63
2023/06/30 02:37:46;;;;;;;9.50;2.70;;;13.20;99.90;;;;;;5030604;28;20048;-63
2023/06/30 02:40:12;;;;;;;11.68;3.13;;;13.10;99.90;;;;;;5038526;28;20061;-63
2023/06/30 02:42:38;;;;;;;12.10;3.75;;;13.10;99.90;;;;;;5031445;28;20029;-63
2023/06/30 02:45:04;;;;;;;6.63;2.53;;;13.10;99.90;;;;;;5038448;28;20098;-63
2023/06/30 02:47:30;;;;;;;9.40;3.15;;;13.00;99.90;;;;;;5030190;28;20177;-63
2023/06/30 02:49:55;;;;;;;5.18;3.00;;;13.00;99.90;;;;;;5015935;28;20634;-63
2023/06/30 02:52:21;;;;;;;5.22;2.83;;;13.00;99.90;;;;;;5040510;28;20059;-63
2023/06/30 02:54:47;;;;;;;4.72;2.83;;;12.90;99.90;;;;;;5033417;28;20037;-63
2023/06/30 02:57:12;;;;;;;5.85;2.45;;;12.80;99.90;;;;;;5044654;28;20179;-63
2023/06/30 02:59:38;;;;;;;5.40;2.80;;;12.80;99.90;;;;;;5033746;28;20040;-63
2023/06/30 03:02:04;;;;;;;6.50;2.88;;;12.80;99.90;;;;;;5036485;28;20239;-63
2023/06/30 03:04:30;;;;;;;8.38;2.72;;;12.70;99.90;;;;;;5030362;28;20052;-63
2023/06/30 03:06:55;;;;;;;7.00;4.15;;;12.70;99.90;;;;;;5036608;28;20037;-63
2023/06/30 03:09:21;;;;;;;6.50;2.83;;;12.70;99.90;;;;;;5047419;28;20037;-63
2023/06/30 03:11:46;;;;;;;10.63;3.35;;;12.70;99.90;;;;;;5033831;28;20075;-63
2023/06/30 03:14:12;;;;;;;9.35;3.35;;;12.70;99.90;;;;;;5043057;28;20060;-63
2023/06/30 03:16:37;;;;;;;9.07;3.08;;;12.70;99.90;;;;;;5030404;28;20033;-63
2023/06/30 03:19:03;;;;;;;14.40;3.40;;;12.80;99.90;;;;;;5043937;28;20155;-63
2023/06/30 03:21:28;;;;;;;6.55;3.40;;;12.70;99.90;;;;;;5027908;28;20488;-63
2023/06/30 03:23:54;;;;;;;10.60;3.38;;;12.70;99.90;;;;;;5048594;28;20156;-63
2023/06/30 03:26:20;;;;;;;8.35;2.97;;;12.70;99.90;;;;;;5040970;28;20052;-63
2023/06/30 03:28:45;;;;;;;8.55;2.75;;;12.70;99.90;;;;;;5047894;28;20041;-63
2023/06/30 03:31:11;;;;;;;7.30;2.95;;;12.80;99.90;;;;;;5031612;28;20062;-63
2023/06/30 03:33:36;;;;;;;10.10;3.22;;;12.70;99.90;;;;;;5038933;28;20136;-63
2023/06/30 03:36:02;;;;;;;9.63;3.20;;;12.80;99.90;;;;;;5041155;28;20041;-63
2023/06/30 03:38:27;;;;;;;5.50;3.13;;;12.70;99.90;;;;;;5048520;28;20125;-63
2023/06/30 03:40:53;;;;;;;10.75;3.33;;;12.70;99.90;;;;;;5050950;28;20505;-63
2023/06/30 03:43:21;;;;;;;8.25;3.35;;;12.60;99.90;;;;;;5048586;28;20477;-63
2023/06/30 03:45:47;;;;;;;9.05;3.20;;;12.70;99.90;;;;;;5048108;28;20040;-63
2023/06/30 03:48:13;;;;;;;6.97;3.13;;;12.60;99.90;;;;;;5048789;28;20144;-63
2023/06/30 03:50:41;;;;;;;5.80;3.47;;;12.60;99.90;;;;;;5025834;28;20128;-63
2023/06/30 03:53:07;;;;;;;8.55;3.35;;;12.70;99.90;;;;;;5042589;28;20037;-63
2023/06/30 03:55:32;;;;;;;10.55;3.60;;;12.60;99.90;;;;;;5037626;28;20037;-63
2023/06/30 03:57:58;;;;;;;10.85;3.25;;;12.60;99.90;;;;;;5035986;28;20070;-63
2023/06/30 04:00:23;;;;;;;9.75;3.45;;;12.60;99.90;;;;;;5033666;28;20038;-64
2023/06/30 04:02:49;;;;;;;7.28;3.38;;;12.60;99.90;;;;;;5036669;28;20525;-63
2023/06/30 04:05:14;;;;;;;10.25;3.00;;;12.60;99.90;;;;;;5039870;28;20433;-64
2023/06/30 04:07:40;;;;;;;6.30;3.03;;;12.70;99.90;;;;;;5033126;28;20037;-63
2023/06/30 04:10:06;;;;;;;5.93;2.88;;;12.60;99.90;;;;;;5037540;28;20045;-63
2023/06/30 04:12:31;;;;;;;8.07;3.13;;;12.60;99.90;;;;;;5035486;28;20045;-62
2023/06/30 04:14:57;;;;;;;8.25;2.80;;;12.60;99.90;;;;;;5045854;28;20207;-63
2023/06/30 04:17:23;;;;;;;7.18;3.25;;;12.70;99.90;;;;;;5044907;28;20041;-63
2023/06/30 04:19:48;;;;;;;9.15;3.40;;;12.60;99.90;;;;;;5039136;28;20107;-63
2023/06/30 04:22:14;;;;;;;10.23;2.97;;;12.60;99.90;;;;;;5039818;28;20125;-63
2023/06/30 04:24:39;;;;;;;8.57;3.17;;;12.60;99.90;;;;;;5043730;28;20033;-63
2023/06/30 04:27:05;;;;;;;8.80;3.65;;;12.60;99.90;;;;;;5040698;28;20049;-63
2023/06/30 04:29:31;;;;;;;5.80;3.03;;;12.60;99.90;;;;;;5034554;28;20041;-63
2023/06/30 04:31:56;;;;;;;7.38;2.85;;;12.60;99.90;;;;;;5041769;28;20096;-63
2023/06/30 04:34:22;;;;;;;5.80;2.60;;;12.60;99.90;;;;;;5040365;28;20076;-62
2023/06/30 04:36:49;;;;;;;6.45;2.90;;;12.60;99.90;;;;;;5040591;28;20043;-63
2023/06/30 04:39:15;;;;;;;6.55;2.72;;;12.60;99.90;;;;;;5031573;28;20386;-63
2023/06/30 04:41:41;;;;;;;6.75;2.88;;;12.60;99.90;;;;;;5044989;28;20093;-63
2023/06/30 04:44:06;;;;;;;5.50;3.10;;;12.70;99.90;;;;;;5035282;28;20033;-62
2023/06/30 04:46:32;;;;;;;8.70;3.20;;;12.70;99.90;;;;;;5041601;28;20055;-63
2023/06/30 04:48:58;;;;;;;9.30;2.83;;;12.80;99.90;;;;;;5048021;28;20128;-63
2023/06/30 04:51:24;;;;;;;7.25;3.38;;;12.80;99.90;;;;;;5041105;28;20155;-63
2023/06/30 04:53:49;;;;;;;8.90;3.30;;;12.90;99.90;;;;;;5039370;28;20124;-63
2023/06/30 04:56:15;;;;;;;8.52;3.40;;;12.90;99.90;;;;;;5036994;28;20049;-62
2023/06/30 04:58:41;;;;;;;8.23;3.10;;;13.00;99.90;;;;;;5039403;28;20174;-63
2023/06/30 05:01:06;;;;;;;5.93;3.58;;;13.10;99.90;;;;;;5036639;28;20044;-63
2023/06/30 05:03:32;;;;;;;11.65;3.72;;;13.20;99.90;;;;;;5035401;28;20072;-63
2023/06/30 05:05:59;;;;;;;9.18;3.28;;;13.30;99.90;;;;;;5029853;28;20040;-63
2023/06/30 05:08:24;;;;;;;5.88;3.17;;;13.40;99.90;;;;;;5038433;28;20041;-64
2023/06/30 05:10:50;;;;;;;7.35;3.35;;;13.50;99.90;;;;;;5036189;28;20044;-63
2023/06/30 05:13:15;;;;;;;8.25;3.58;;;13.60;99.90;;;;;;5027936;28;20043;-63
2023/06/30 05:15:41;;;;;;;5.93;2.95;;;13.70;99.90;;;;;;5032671;28;20055;-63
2023/06/30 05:18:07;;;;;;;7.13;3.47;;;13.90;99.90;;;;;;5034309;28;20059;-64
2023/06/30 05:20:33;;;;;;;7.53;2.67;;;14.00;99.90;;;;;;5035556;28;20049;-63
2023/06/30 05:22:59;;;;;;;9.45;3.15;;;14.20;99.90;;;;;;5033641;28;20065;-63
2023/06/30 05:25:25;;;;;;;11.65;2.85;;;14.30;99.90;;;;;;5041373;28;20128;-64
2023/06/30 05:27:51;;;;;;;5.80;2.80;;;14.40;99.90;;;;;;5038315;28;20635;-64
2023/06/30 05:30:17;;;;;;;9.73;2.72;;;14.50;99.90;;;;;;5042526;28;20441;-64
2023/06/30 05:32:42;;;;;;;6.13;2.38;;;14.70;99.90;;;;;;5045398;28;20088;-63
2023/06/30 05:35:08;;;;;;;7.22;2.70;;;14.80;98.80;;;;;;5029013;28;20077;-63
2023/06/30 05:37:33;;;;;;;8.35;2.53;;;14.90;99.90;;;;;;5048284;28;20041;-64
2023/06/30 05:39:59;;;;;;;6.88;2.33;;;15.10;99.80;;;;;;5046624;28;20043;-64
2023/06/30 05:42:25;;;;;;;7.25;2.50;;;15.30;99.90;;;;;;5039307;28;20102;-64
2023/06/30 05:44:51;;;;;;;7.97;2.55;;;15.40;99.80;;;;;;5040713;28;20049;-64
2023/06/30 05:47:16;;;;;;;5.45;2.60;;;15.60;99.60;;;;;;5028664;28;20083;-64
2023/06/30 05:49:48;;;;;;;5.55;2.40;;;15.70;98.80;;;;;;5054149;28;20501;-63
2023/06/30 05:52:14;;;;;;;3.58;2.20;;;15.90;99.00;;;;;;5060287;28;20098;-63
2023/06/30 05:54:41;;;;;;;6.88;2.13;;;16.00;98.60;;;;;;5052822;28;20056;-64
2023/06/30 05:57:06;;;;;;;4.20;2.08;;;16.20;97.60;;;;;;5052836;28;20056;-63
2023/06/30 05:59:32;;;;;;;4.57;2.50;;;16.30;97.20;;;;;;5049667;28;20369;-64
2023/06/30 06:01:58;;;;;;;6.35;1.92;;;16.40;96.50;;;;;;5052879;28;20040;-64
2023/06/30 06:04:23;;;;;;;6.85;2.30;;;16.60;96.40;;;;;;5054381;28;20154;-64
2023/06/30 06:06:49;;;;;;;3.95;1.90;;;16.70;95.80;;;;;;5059079;28;20435;-64
2023/06/30 06:09:14;;;;;;;7.80;1.73;;;16.90;95.20;;;;;;5049670;28;20552;-64
2023/06/30 06:11:40;;;;;;;4.60;1.90;;;17.00;94.70;;;;;;5052804;28;20120;-64
2023/06/30 06:14:06;;;;;;;7.10;2.63;;;17.20;94.00;;;;;;5052773;28;21862;-65
2023/06/30 06:16:31;;;;;;;5.57;2.25;;;17.50;93.90;;;;;;5052860;28;20101;-64
2023/06/30 06:18:58;;;;;;;6.50;1.77;;;17.60;93.20;;;;;;5061393;28;20339;-64
2023/06/30 06:21:27;;;;;;;6.25;1.67;;;17.80;92.60;;;;;;5058587;28;20049;-65
2023/06/30 06:23:54;;;;;;;3.30;1.50;;;17.90;91.00;;;;;;5047924;28;20126;-64
2023/06/30 06:26:19;;;;;;;3.65;1.38;;;18.00;91.80;;;;;;5049068;28;20177;-68
2023/06/30 06:28:45;;;;;;;4.10;1.50;;;18.00;90.50;;;;;;5048543;28;20465;-65
2023/06/30 06:31:10;;;;;;;7.82;1.65;;;18.30;88.60;;;;;;5048031;28;20049;-65
2023/06/30 06:33:36;;;;;;;4.50;1.40;;;18.50;90.00;;;;;;5047810;28;20109;-65
2023/06/30 06:36:02;;;;;;;4.20;1.70;;;18.70;89.30;;;;;;5047773;28;20045;-65
2023/06/30 06:38:27;;;;;;;4.43;1.92;;;18.80;88.80;;;;;;5045927;28;20048;-65
2023/06/30 06:40:53;;;;;;;5.13;1.48;;;19.10;87.30;;;;;;5046524;28;20045;-65
2023/06/30 06:43:18;;;;;;;2.38;1.42;;;19.30;86.10;;;;;;5047377;28;20109;-64
2023/06/30 06:45:46;;;;;;;2.83;1.20;;;19.40;84.90;;;;;;5049443;28;20060;-64
2023/06/30 06:48:28;;;;;;;7.95;1.50;;;19.70;83.50;;;;;;5052953;28;20060;-64
2023/06/30 06:50:59;;;;;;;3.95;1.35;;;19.80;76.80;;;;;;5047832;28;20106;-64
2023/06/30 06:53:35;;;;;;;3.95;1.25;;;19.80;79.30;;;;;;5049690;28;20079;-64
2023/06/30 06:56:03;;;;;;;4.90;1.27;;;20.00;77.40;;;;;;5045008;28;20052;-64
2023/06/30 06:58:38;;;;;;;2.72;1.27;;;20.20;79.20;;;;;;5046897;28;20104;-64
2023/06/30 07:01:03;;;;;;;2.33;0.93;;;20.20;76.50;;;;;;5030165;28;20135;-65
2023/06/30 07:03:29;;;;;;;3.42;1.00;;;20.30;76.40;;;;;;5033263;28;20037;-64
2023/06/30 07:05:56;;;;;;;4.60;1.30;;;20.30;75.30;;;;;;5037758;28;20430;-64
2023/06/30 07:08:22;;;;;;;5.43;1.17;;;20.20;74.50;;;;;;5038720;28;20041;-64
2023/06/30 07:10:48;;;;;;;5.43;1.35;;;20.40;74.10;;;;;;5040025;28;20418;-64
2023/06/30 07:13:18;;;;;;;4.55;0.93;;;20.50;72.70;;;;;;5030409;28;20329;-65
2023/06/30 07:15:45;;;;;;;4.70;1.00;;;20.70;72.00;;;;;;5032643;28;20136;-64
2023/06/30 07:18:11;;;;;;;2.78;1.15;;;20.80;71.30;;;;;;5049244;28;20087;-64
2023/06/30 07:20:36;;;;;;;2.78;1.00;;;20.70;70.70;;;;;;5049865;28;20345;-64
2023/06/30 07:23:02;;;;;;;2.22;0.93;;;20.80;70.00;;;;;;5034080;28;20041;-64
2023/06/30 07:25:28;;;;;;;4.82;1.02;;;21.00;69.10;;;;;;5028673;28;20038;-65
2023/06/30 07:27:55;;;;;;;3.20;0.80;;;21.00;68.60;;;;;;5029395;28;20053;-65
2023/06/30 07:30:23;;;;;;;3.33;0.80;;;21.20;67.90;;;;;;5046762;28;20194;-65
2023/06/30 07:32:49;;;;;;;3.90;1.00;;;21.50;67.40;;;;;;5029905;28;20049;-65
2023/06/30 07:35:16;;;;;;;5.43;1.20;;;21.60;65.90;;;;;;5039183;28;20437;-65
2023/06/30 07:37:41;;;;;;;6.95;1.10;;;21.40;66.60;;;;;;5044544;28;20057;-65
2023/06/30 07:40:07;;;;;;;2.83;0.75;;;21.40;66.10;;;;;;5036399;28;20151;-65
2023/06/30 07:42:33;;;;;;;2.17;1.00;;;21.30;65.30;;;;;;5031817;28;20137;-65
2023/06/30 07:44:59;;;;;;;3.97;1.05;;;21.10;64.60;;;;;;5033410;28;20044;-65
2023/06/30 07:47:25;;;;;;;3.33;0.90;;;21.10;64.30;;;;;;5025387;28;20063;-65
2023/06/30 07:49:50;;;;;;;3.45;0.75;;;21.50;64.10;;;;;;5049147;28;20163;-65
2023/06/30 07:52:16;;;;;;;4.05;0.90;;;21.70;63.40;;;;;;5037299;28;20051;-66
2023/06/30 07:54:43;;;;;;;3.65;0.90;;;22.00;61.70;;;;;;5050337;28;20072;-65
2023/06/30 07:57:08;;;;;;;2.72;0.90;;;22.30;61.20;;;;;;5045487;28;20474;-66
2023/06/30 07:59:35;;;;;;;2.88;0.75;;;22.40;60.50;;;;;;5030045;28;20056;-66
2023/06/30 08:02:01;;;;;;;5.93;1.10;;;22.40;59.70;;;;;;5035768;28;20458;-65
2023/06/30 08:04:26;;;;;;;2.63;0.90;;;22.70;58.70;;;;;;5043624;28;20033;-65
2023/06/30 08:06:52;;;;;;;4.93;1.00;;;23.20;58.10;;;;;;5043221;28;20045;-65
2023/06/30 08:09:17;;;;;;;3.03;1.30;;;23.20;57.50;;;;;;5037119;28;20052;-65
2023/06/30 08:11:43;;;;;;;2.45;1.10;;;23.10;56.30;;;;;;5035882;28;20118;-65
2023/06/30 08:14:08;;;;;;;6.72;1.40;;;23.30;55.90;;;;;;5039474;28;20106;-66
2023/06/30 08:16:34;;;;;;;1.77;0.73;;;23.10;54.90;;;;;;5030221;28;20056;-65
2023/06/30 08:19:00;;;;;;;3.33;0.80;;;23.20;55.00;;;;;;5034336;28;20476;-66
2023/06/30 08:21:25;;;;;;;5.25;0.98;;;23.00;55.10;;;;;;5032007;28;20041;-65
2023/06/30 08:23:51;;;;;;;3.70;1.10;;;23.00;55.00;;;;;;5031734;28;20436;-66
2023/06/30 08:26:16;;;;;;;3.22;0.88;;;23.30;53.70;;;;;;5032983;28;20033;-65
2023/06/30 08:28:42;;;;;;;1.85;1.00;;;23.40;53.50;;;;;;5037539;28;20042;-66
2023/06/30 08:31:07;;;;;;;3.85;0.82;;;23.90;52.70;;;;;;5031081;28;20076;-65
2023/06/30 08:33:33;;;;;;;2.00;0.77;;;24.20;52.20;;;;;;5041173;28;20053;-65
2023/06/30 08:36:00;;;;;;;2.65;0.90;;;23.90;52.30;;;;;;5032908;28;20116;-65
2023/06/30 08:38:26;;;;;;;1.52;1.05;;;23.50;52.40;;;;;;5047331;28;20033;-65
2023/06/30 08:40:51;;;;;;;2.95;0.85;;;23.10;52.90;;;;;;5019645;28;20037;-65
2023/06/30 08:43:22;;;;;;;2.13;0.73;;;23.10;52.40;;;;;;5030709;28;20070;-65
2023/06/30 08:45:48;;;;;;;1.40;0.85;;;23.60;48.80;;;;;;5031126;28;20041;-65
2023/06/30 08:48:18;;;;;;;3.13;0.70;;;24.10;47.80;;;;;;5030176;28;20481;-65
2023/06/30 08:50:44;;;;;;;2.43;0.70;;;24.40;45.90;;;;;;5031962;28;20096;-65
2023/06/30 08:53:10;;;;;;;1.55;0.70;;;24.60;45.90;;;;;;5034361;28;20086;-65
2023/06/30 08:55:36;;;;;;;2.50;0.95;;;25.20;45.20;;;;;;5031075;28;20033;-66
2023/06/30 08:58:02;;;;;;;1.80;0.80;;;25.90;44.50;;;;;;5034388;28;20037;-66
2023/06/30 09:00:27;;;;;;;4.88;1.10;;;26.30;44.30;;;;;;5038225;28;20177;-66
2023/06/30 09:02:55;;;;;;;2.30;0.95;;;26.50;44.00;;;;;;5042245;28;20524;-66
2023/06/30 09:05:22;;;;;;;3.92;0.90;;;25.90;43.80;;;;;;5047922;28;20047;-69
2023/06/30 09:07:56;;;;;;;2.45;0.70;;;25.30;44.20;;;;;;5047364;28;20048;-65
2023/06/30 09:10:33;;;;;;;3.17;0.80;;;24.70;43.30;;;;;;5029935;28;20142;-66
2023/06/30 09:13:00;;;;;;;1.70;0.68;;;25.30;43.00;;;;;;5031549;28;20048;-66
2023/06/30 09:15:25;;;;;;;1.80;0.77;;;25.90;42.30;;;;;;5043400;28;20091;-66
2023/06/30 09:17:52;;;;;;;2.67;1.08;;;26.90;41.00;;;;;;5048444;28;20041;-66
2023/06/30 09:20:20;;;;;;;3.00;1.00;;;27.60;38.50;;;;;;5041962;28;20049;-66
2023/06/30 09:22:46;;;;;;;2.58;0.80;;;27.80;36.90;;;;;;5030724;28;20520;-66
2023/06/30 09:25:27;;;;;;;5.78;1.05;;;28.50;37.10;;;;;;5046479;28;20051;-66
2023/06/30 09:27:54;;;;;;;3.35;1.15;;;28.50;33.60;;;;;;5029299;28;20163;-66
2023/06/30 09:30:32;;;;;;;4.88;0.85;;;29.40;34.60;;;;;;5038416;28;20486;-66
2023/06/30 09:32:57;;;;;;;3.53;0.90;;;28.30;32.50;;;;;;5042610;28;20455;-66
2023/06/30 09:35:23;;;;;;;3.78;0.75;;;27.80;35.50;;;;;;5036212;28;20123;-66
2023/06/30 09:37:49;;;;;;;1.85;0.80;;;26.60;35.80;;;;;;5039930;28;20041;-66
2023/06/30 09:40:15;;;;;;;2.78;0.73;;;25.80;37.90;;;;;;5037046;28;20052;-65
2023/06/30 09:42:44;;;;;;;2.67;1.02;;;25.10;39.50;;;;;;5039647;28;20052;-65
2023/06/30 09:45:13;;;;;;;3.72;1.05;;;24.50;41.10;;;;;;5031162;28;20052;-65
2023/06/30 09:47:39;;;;;;;1.88;1.02;;;24.00;42.10;;;;;;5030129;28;20052;-65
2023/06/30 09:50:05;;;;;;;2.47;0.90;;;23.50;42.90;;;;;;5047664;28;20516;-65
2023/06/30 09:52:33;;;;;;;2.75;0.80;;;23.80;42.70;;;;;;5042621;28;20090;-65
2023/06/30 09:55:08;;;;;;;5.07;0.95;;;24.60;41.20;;;;;;5043538;28;20044;-64
2023/06/30 09:57:37;;;;;;;2.85;0.60;;;25.80;39.00;;;;;;5041586;28;20120;-65
2023/06/30 10:00:04;;;;;;;3.63;1.07;;;26.80;36.40;;;;;;5034940;28;20036;-65
2023/06/30 10:02:31;;;;;;;3.05;0.73;;;27.80;36.20;;;;;;5028406;28;20313;-66
2023/06/30 10:04:56;;;;;;;1.58;0.60;;;28.70;35.10;;;;;;5047516;28;20172;-66
2023/06/30 10:07:22;;;;;;;2.47;0.60;;;29.90;33.90;;;;;;5046970;28;20065;-66
2023/06/30 10:09:50;;;;;;;1.63;0.57;;;30.20;32.50;;;;;;5041711;28;20053;-66
2023/06/30 10:12:18;;;;;;;3.10;0.60;;;30.80;31.60;;;;;;5026336;28;20049;-66
2023/06/30 10:14:47;;;;;;;3.95;0.85;;;30.40;30.00;;;;;;5035198;28;20091;-67
2023/06/30 10:17:13;;;;;;;2.35;0.70;;;29.30;31.70;;;;;;5022679;28;20434;-65
2023/06/30 10:19:39;;;;;;;3.38;0.95;;;28.20;33.50;;;;;;5043146;28;20045;-66
2023/06/30 10:22:05;;;;;;;1.80;0.70;;;27.40;34.60;;;;;;5039497;28;20045;-66
2023/06/30 10:24:41;;;;;;;4.53;0.85;;;27.00;35.40;;;;;;5027413;28;20232;-66
2023/06/30 10:27:09;;;;;;;2.65;1.10;;;27.60;35.00;;;;;;5038833;28;20519;-65
2023/06/30 10:29:35;;;;;;;5.15;0.95;;;28.70;33.80;;;;;;5046683;28;20040;-65
2023/06/30 10:32:02;;;;;;;1.55;0.85;;;29.90;32.10;;;;;;5043988;28;20155;-66
2023/06/30 10:34:29;;;;;;;2.78;0.80;;;30.50;30.40;;;;;;5028290;28;20088;-66
2023/06/30 10:36:55;;;;;;;2.13;1.02;;;30.90;29.30;;;;;;5031631;28;20048;-66
2023/06/30 10:39:21;;;;;;;2.28;1.10;;;30.90;29.30;;;;;;5030913;28;20041;-66
2023/06/30 10:41:48;;;;;;;4.15;1.63;;;30.40;29.00;;;;;;5031386;28;20441;-66
2023/06/30 10:44:14;;;;;;;2.35;1.08;;;29.40;29.20;;;;;;5048557;28;20779;-66
2023/06/30 10:46:56;;;;;;;2.13;0.98;;;29.50;29.90;;;;;;5048353;28;20056;-65
2023/06/30 10:49:31;;;;;;;2.78;0.82;;;30.10;28.70;;;;;;5040640;28;20041;-66
2023/06/30 10:51:58;;;;;;;2.58;1.05;;;30.40;28.60;;;;;;5031680;28;20344;-66
2023/06/30 10:54:38;;;;;;;3.53;1.20;;;29.50;29.30;;;;;;5048949;28;20358;-66
2023/06/30 10:57:28;;;;;;;1.80;0.57;;;28.70;30.00;;;;;;5050065;28;20041;-66
2023/06/30 11:00:10;;;;;;;3.42;1.00;;;28.50;30.00;;;;;;5033130;28;20099;-65
2023/06/30 11:02:47;;;;;;;1.88;0.60;;;28.50;30.10;;;;;;5049443;28;20037;-66
2023/06/30 11:05:32;;;;;;;1.77;0.82;;;28.20;30.90;;;;;;5048321;28;20078;-66
2023/06/30 11:08:01;;;;;;;2.08;0.77;;;28.20;31.10;;;;;;5043149;28;20132;-66
2023/06/30 11:10:32;;;;;;;1.63;0.80;;;28.10;31.20;;;;;;5050458;28;20040;-65
2023/06/30 11:13:03;;;;;;;3.60;1.20;;;28.00;31.00;;;;;;5048535;28;20103;-66
2023/06/30 11:15:42;;;;;;;2.47;0.80;;;27.70;30.40;;;;;;5048283;28;20036;-65
2023/06/30 11:18:14;;;;;;;1.90;1.00;;;27.30;31.70;;;;;;5033753;28;20048;-65
2023/06/30 11:21:01;;;;;;;2.92;0.80;;;27.10;32.60;;;;;;5034647;28;20049;-65
2023/06/30 11:23:28;;;;;;;1.88;0.90;;;26.60;31.60;;;;;;5048313;28;20037;-65
2023/06/30 11:25:57;;;;;;;2.38;0.65;;;26.30;32.70;;;;;;5049170;28;20346;-65
2023/06/30 11:28:26;;;;;;;3.10;0.80;;;26.10;32.70;;;;;;5046233;28;20073;-65
2023/06/30 11:30:52;;;;;;;2.53;0.65;;;26.00;32.10;;;;;;5040638;28;20044;-66
2023/06/30 11:33:18;;;;;;;0.90;0.50;;;26.00;31.90;;;;;;5032912;28;20530;-65
2023/06/30 11:35:49;;;;;;;1.20;0.60;;;25.80;32.00;;;;;;5043525;28;20071;-64
2023/06/30 11:38:15;;;;;;;2.50;0.80;;;25.60;31.50;;;;;;5049483;28;20070;-64
2023/06/30 11:40:48;;;;;;;3.47;0.73;;;25.40;32.20;;;;;;5038606;28;20049;-65
2023/06/30 11:43:14;;;;;;;2.55;0.90;;;25.30;33.20;;;;;;5036094;28;20041;-65
2023/06/30 11:45:39;;;;;;;3.17;0.98;;;25.10;32.80;;;;;;5043795;28;20039;-64
2023/06/30 11:48:06;;;;;;;2.10;0.90;;;24.90;32.80;;;;;;5044275;28;20520;-65
2023/06/30 11:50:33;;;;;;;2.72;0.98;;;24.70;33.50;;;;;;5030590;28;20114;-64
2023/06/30 11:53:00;;;;;;;3.08;1.08;;;24.50;33.50;;;;;;5032038;28;20048;-65
2023/06/30 11:55:28;;;;;;;3.22;1.27;;;24.10;33.70;;;;;;5037895;28;20623;-64
2023/06/30 11:57:54;;;;;;;2.63;1.00;;;23.90;34.10;;;;;;5042770;28;20037;-64
2023/06/30 12:00:22;;;;;;;5.00;1.00;;;23.80;34.70;;;;;;5047107;28;20035;-64
2023/06/30 12:02:49;;;;;;;2.72;1.23;;;23.90;35.60;;;;;;5049097;28;20686;-64
2023/06/30 12:05:25;;;;;;;1.73;1.00;;;24.00;35.00;;;;;;5040399;28;20061;-66
2023/06/30 12:07:52;;;;;;;3.53;0.80;;;24.40;33.80;;;;;;5033716;28;20032;-64
2023/06/30 12:10:18;;;;;;;3.17;1.20;;;24.70;34.00;;;;;;5049728;28;20041;-64
2023/06/30 12:12:53;;;;;;;1.38;0.80;;;25.10;33.10;;;;;;5046598;28;20119;-64
2023/06/30 12:15:19;;;;;;;2.42;0.95;;;25.40;33.00;;;;;;5040181;28;20033;-65
2023/06/30 12:17:45;;;;;;;2.80;0.80;;;25.60;32.30;;;;;;5042470;28;20059;-65
2023/06/30 12:20:11;;;;;;;2.55;1.13;;;26.00;30.90;;;;;;5049414;28;20052;-64
2023/06/30 12:22:41;;;;;;;6.40;1.20;;;26.40;30.70;;;;;;5041021;28;20323;-64
2023/06/30 12:25:11;;;;;;;4.85;1.17;;;27.00;30.30;;;;;;5038918;28;20037;-65
2023/06/30 12:27:41;;;;;;;3.13;1.20;;;27.70;30.10;;;;;;5048832;28;20124;-64
2023/06/30 12:30:17;;;;;;;2.30;1.00;;;28.70;29.20;;;;;;5048248;28;20591;-64
2023/06/30 12:32:43;;;;;;;3.67;1.60;;;28.20;28.80;;;;;;5048564;28;20389;-66
2023/06/30 12:35:09;;;;;;;3.40;1.20;;;27.30;29.10;;;;;;5038544;28;20033;-64
2023/06/30 12:37:35;;;;;;;4.68;1.05;;;26.60;29.80;;;;;;5028565;28;20091;-64
2023/06/30 12:40:01;;;;;;;3.67;1.10;;;25.90;30.90;;;;;;5049867;28;20040;-65
2023/06/30 12:42:30;;;;;;;4.60;1.30;;;25.40;31.50;;;;;;5035518;28;20110;-65
2023/06/30 12:44:56;;;;;;;2.53;1.10;;;26.50;30.90;;;;;;5039234;28;20604;-64